»·PEaware :: UAL465 KPHX-KLAX

UAL465 :: KPHX-KLAX

FLIGHT INFORMATION

Flight Status: Arrived
Operator:
United Airlines
More flights by this operator :: More flights under this callsign
Pilot: Matt G. (13672)
Aircraft: BOEING 757-200
(B752)
More flights by this aircraft type
Origin: KPHX Phoenix Sky Harbor Intl
United States
Destination: KLAX Los Angeles Intl
United States
More flights between these airports :: More routes between these airports
Route: +KEENS2 MESSI ESTWD HLYWD1
File this flight plan on PilotEdge
Remarks: Landing South
Altitude:
(Current/Filed)
36,000ft
Speed:
(Current/Filed)
442kts
Departed: 13-Sep-19 06:52 PM
Arrived: 13-Sep-19 07:51 PM
Distance/Time
Traveled:
320nm/0:59
Distance/Time
To Go:
Arrived

Flight Plot

Page will automatically refresh every two minutes.

Flight plan parsing failed; only flown route is shown


Map Options




Map Legend


Flown Route
Filed Route
Departure Airport
Arrival Airport
Navaid (VOR, NDB)
Fix

Horizontal Profiles

Position Reports

Time Latitude Longitude Heading Altitude Ground
Speed
13-Sep-19 18:21 33.437539 -112.001228 270 1120ft 0kts
13-Sep-19 18:22 33.437539 -112.001228 270 1120ft 0kts
13-Sep-19 18:23 33.437539 -112.001228 270 1120ft 0kts
13-Sep-19 18:24 33.437539 -112.001228 270 1120ft 0kts
13-Sep-19 18:25 33.437539 -112.001228 270 1120ft 0kts
13-Sep-19 18:26 33.437539 -112.001228 270 1120ft 0kts
13-Sep-19 18:27 33.437539 -112.001228 270 1120ft 0kts
13-Sep-19 18:28 33.437539 -112.001228 270 1120ft 0kts
13-Sep-19 18:29 33.437539 -112.001228 270 1120ft 0kts
13-Sep-19 18:30 33.437539 -112.001228 270 1120ft 0kts
13-Sep-19 18:31 33.437539 -112.001228 270 1120ft 0kts
13-Sep-19 18:32 33.437539 -112.001228 270 1120ft 0kts
13-Sep-19 18:33 33.437539 -112.001228 270 1120ft 0kts
13-Sep-19 18:34 33.437539 -112.001228 270 1120ft 0kts
13-Sep-19 18:35 33.437539 -112.001228 270 1120ft 0kts
13-Sep-19 18:36 33.437539 -112.001228 270 1120ft 0kts
13-Sep-19 18:37 33.437539 -112.001228 270 1120ft 0kts
13-Sep-19 18:38 33.437539 -112.001228 270 1120ft 0kts
13-Sep-19 18:39 33.437538 -112.000896 280 1120ft 2kts
13-Sep-19 18:40 33.437076 -112.000534 3 1120ft 2kts
13-Sep-19 18:41 33.436927 -112.000537 358 1120ft 0kts
13-Sep-19 18:42 33.436927 -112.000537 358 1120ft 0kts
13-Sep-19 18:43 33.436927 -112.000537 358 1120ft 0kts
13-Sep-19 18:44 33.437283 -112.000543 359 1120ft 6kts
13-Sep-19 18:45 33.439668 -112.000158 71 1120ft 9kts
13-Sep-19 18:46 33.439729 -111.995471 90 1120ft 18kts
13-Sep-19 18:47 33.439802 -111.993941 62 1120ft 0kts
13-Sep-19 18:48 33.439802 -111.993940 62 1120ft 0kts
13-Sep-19 18:49 33.439802 -111.993940 62 1120ft 0kts
13-Sep-19 18:50 33.440137 -111.993613 11 1120ft 6kts
13-Sep-19 18:51 33.440841 -112.006118 270 1121ft 113kts
13-Sep-19 18:52 33.436873 -112.056580 246 2254ft 157kts
13-Sep-19 18:53 33.418888 -112.111438 247 2666ft 201kts
13-Sep-19 18:54 33.394667 -112.184663 251 3974ft 255kts
13-Sep-19 18:55 33.401406 -112.269511 279 6320ft 263kts
13-Sep-19 18:56 33.414394 -112.357825 280 8629ft 272kts
13-Sep-19 18:57 33.428013 -112.450051 280 10321ft 303kts
13-Sep-19 18:58 33.443864 -112.557955 280 12006ft 337kts
13-Sep-19 18:59 33.451066 -112.671783 270 14061ft 347kts
13-Sep-19 19:00 33.453222 -112.789419 277 15871ft 357kts
13-Sep-19 19:01 33.488603 -112.901994 292 17569ft 366kts
13-Sep-19 19:02 33.528344 -113.015823 292 19196ft 375kts
13-Sep-19 19:03 33.569090 -113.132771 292 20745ft 384kts
13-Sep-19 19:04 33.610730 -113.252714 292 22213ft 392kts
13-Sep-19 19:05 33.653214 -113.375553 292 23601ft 401kts
13-Sep-19 19:06 33.696325 -113.500693 292 24905ft 409kts
13-Sep-19 19:07 33.740291 -113.628822 292 26141ft 417kts
13-Sep-19 19:08 33.784908 -113.759368 292 27318ft 425kts
13-Sep-19 19:09 33.830385 -113.892908 292 28438ft 432kts
13-Sep-19 19:10 33.876381 -114.028507 292 29498ft 439kts
13-Sep-19 19:11 33.914347 -114.169537 281 30495ft 446kts
13-Sep-19 19:12 33.939738 -114.317367 281 31551ft 452kts
13-Sep-19 19:13 33.964672 -114.465248 281 32949ft 449kts
13-Sep-19 19:14 33.989392 -114.613161 281 34001ft 448kts
13-Sep-19 19:15 34.013806 -114.760360 281 34000ft 446kts
13-Sep-19 19:16 34.038083 -114.907902 281 34000ft 445kts
13-Sep-19 19:17 34.062133 -115.055131 281 33999ft 445kts
13-Sep-19 19:18 34.086098 -115.202654 281 34000ft 445kts
13-Sep-19 19:19 34.109787 -115.349632 281 34000ft 445kts
13-Sep-19 19:20 34.133410 -115.497369 281 34000ft 445kts
13-Sep-19 19:21 34.156752 -115.644544 281 34000ft 445kts
13-Sep-19 19:22 34.153873 -115.789405 263 33999ft 445kts
13-Sep-19 19:23 34.139840 -115.937471 263 33999ft 445kts
13-Sep-19 19:24 34.125221 -116.087177 263 33529ft 444kts
13-Sep-19 19:25 34.110824 -116.232784 263 31685ft 429kts
13-Sep-19 19:26 34.096083 -116.375441 262 29801ft 420kts
13-Sep-19 19:27 34.081229 -116.513826 262 27958ft 408kts
13-Sep-19 19:28 34.067581 -116.648566 264 25831ft 405kts
13-Sep-19 19:29 34.055245 -116.781133 263 23715ft 381kts
13-Sep-19 19:30 34.042604 -116.908987 260 21593ft 368kts
13-Sep-19 19:31 34.027088 -117.027862 261 18216ft 357kts
13-Sep-19 19:32 34.013220 -117.144746 263 16625ft 344kts
13-Sep-19 19:33 34.003684 -117.257543 255 15228ft 340kts
13-Sep-19 19:34 33.986856 -117.368475 261 13701ft 331kts
13-Sep-19 19:35 33.974018 -117.477128 266 12173ft 321kts
13-Sep-19 19:36 33.989270 -117.582779 280 12044ft 316kts
13-Sep-19 19:37 33.996494 -117.679284 270 12033ft 262kts
13-Sep-19 19:38 33.994358 -117.769904 266 10641ft 272kts
13-Sep-19 19:39 33.988213 -117.861934 264 9084ft 264kts
13-Sep-19 19:40 33.981266 -117.942130 263 7719ft 228kts
13-Sep-19 19:41 33.974354 -118.015284 263 6442ft 197kts
13-Sep-19 19:42 33.968359 -118.076572 263 5328ft 153kts
13-Sep-19 19:43 33.964399 -118.116474 263 4609ft 142kts
13-Sep-19 19:44 33.959673 -118.163712 263 3801ft 141kts
13-Sep-19 19:45 33.955110 -118.210444 262 3005ft 139kts
13-Sep-19 19:46 33.950180 -118.256503 263 2318ft 138kts
13-Sep-19 19:47 33.945349 -118.301612 263 1438ft 132kts
13-Sep-19 19:48 33.941047 -118.346184 263 774ft 135kts
13-Sep-19 19:49 33.936490 -118.391301 263 115ft 113kts
13-Sep-19 19:50 33.936185 -118.403399 281 114ft 0kts
13-Sep-19 19:51 33.936185 -118.403399 281 114ft 0kts
13-Sep-19 19:52 33.936196 -118.403427 297 114ft 0kts
13-Sep-19 19:53 33.937407 -118.404084 338 114ft 16kts
13-Sep-19 19:54 33.939413 -118.401759 81 114ft 9kts
13-Sep-19 19:55 33.940609 -118.400433 67 114ft 0kts
13-Sep-19 19:56 33.940674 -118.400137 77 114ft 0kts
13-Sep-19 19:57 33.940674 -118.400137 77 114ft 0kts

Navigation Log

Ident Type
Flight plan parsing failed, navigation log unavailable